createdAt,value
2018-06-11T00:01:31.358Z,18.80
2018-06-11T00:04:01.733Z,18.80
2018-06-11T00:06:32.881Z,18.80
2018-06-11T00:09:04.051Z,18.60
2018-06-11T00:11:34.422Z,18.60
2018-06-11T00:14:04.801Z,18.70
2018-06-11T00:16:35.188Z,18.80
2018-06-11T00:19:05.567Z,18.70
2018-06-11T00:21:36.902Z,18.70
2018-06-11T00:24:07.307Z,18.80
2018-06-11T00:26:37.689Z,18.80
2018-06-11T00:29:29.496Z,18.70
2018-06-11T00:31:59.809Z,18.70
2018-06-11T00:34:30.369Z,18.70
2018-06-11T00:37:00.778Z,18.70
2018-06-11T00:39:31.144Z,18.70
2018-06-11T00:42:01.520Z,18.70
2018-06-11T00:44:31.933Z,18.70
2018-06-11T00:47:02.310Z,18.70
2018-06-11T00:49:32.685Z,18.90
2018-06-11T00:52:03.089Z,18.80
2018-06-11T00:54:34.490Z,18.80
2018-06-11T00:57:04.862Z,18.90
2018-06-11T00:59:35.202Z,18.80
2018-06-11T01:02:05.571Z,19.00
2018-06-11T01:04:40.043Z,18.90
2018-06-11T01:07:10.434Z,18.90
2018-06-11T01:09:40.793Z,19.00
2018-06-11T01:12:11.825Z,18.90
2018-06-11T01:14:42.227Z,18.90
2018-06-11T01:17:31.711Z,18.60
2018-06-11T01:20:02.120Z,18.60
2018-06-11T01:22:36.583Z,18.60
2018-06-11T01:25:06.956Z,18.50
2018-06-11T01:27:37.368Z,18.40
2018-06-11T01:30:08.477Z,18.40
2018-06-11T01:32:38.845Z,18.60
2018-06-11T01:35:09.242Z,18.70
2018-06-11T01:37:40.322Z,18.60
2018-06-11T01:40:10.694Z,18.60
2018-06-11T01:42:41.738Z,18.70
2018-06-11T01:45:12.113Z,18.70
2018-06-11T01:47:42.492Z,18.80
2018-06-11T01:50:12.878Z,18.80
2018-06-11T01:52:47.336Z,18.80
2018-06-11T01:55:17.711Z,18.80
2018-06-11T01:57:48.112Z,18.90
2018-06-11T02:00:19.233Z,18.90
2018-06-11T02:02:49.611Z,18.90
2018-06-11T02:05:20.016Z,18.90
2018-06-11T02:07:51.163Z,19.00
2018-06-11T02:10:21.540Z,19.00
2018-06-11T02:12:51.948Z,18.90
2018-06-11T02:15:26.414Z,18.90
2018-06-11T02:17:56.797Z,18.90
2018-06-11T02:20:33.313Z,18.80
2018-06-11T02:23:04.461Z,18.90
2018-06-11T02:25:34.777Z,18.80
2018-06-11T02:28:05.370Z,18.90
2018-06-11T02:30:57.931Z,18.80
2018-06-11T02:33:28.342Z,18.80
2018-06-11T02:35:59.732Z,18.90
2018-06-11T02:38:30.102Z,18.90
2018-06-11T02:41:00.493Z,19.00
2018-06-11T02:43:30.875Z,18.90
2018-06-11T02:46:01.251Z,18.90
2018-06-11T02:48:32.412Z,18.80
2018-06-11T02:51:02.793Z,18.80
2018-06-11T02:53:33.171Z,18.80
2018-06-11T02:56:03.509Z,18.70
2018-06-11T02:58:33.829Z,18.70
2018-06-11T03:01:04.205Z,18.70
2018-06-11T03:03:34.605Z,18.70
2018-06-11T03:06:26.400Z,18.80
2018-06-11T03:08:56.799Z,18.60
2018-06-11T03:11:27.937Z,18.70
2018-06-11T03:13:58.319Z,18.60
2018-06-11T03:16:34.859Z,18.70
2018-06-11T03:19:07.026Z,18.50
2018-06-11T03:21:37.399Z,18.40
2018-06-11T03:24:07.813Z,18.40
2018-06-11T03:26:38.891Z,18.60
2018-06-11T03:29:09.261Z,18.50
2018-06-11T03:31:39.723Z,18.60
2018-06-11T03:34:17.264Z,18.50
2018-06-11T03:36:47.667Z,18.60
2018-06-11T03:39:18.043Z,18.50
2018-06-11T03:41:48.360Z,18.60
2018-06-11T03:44:18.761Z,18.60
2018-06-11T03:46:49.901Z,18.70
2018-06-11T03:49:21.053Z,18.50
2018-06-11T03:51:51.452Z,18.50
2018-06-11T03:54:21.830Z,18.50
2018-06-11T03:56:52.208Z,18.50
2018-06-11T03:59:22.603Z,18.40
2018-06-11T04:01:52.981Z,18.50
2018-06-11T04:04:24.122Z,18.70
2018-06-11T04:09:43.765Z,18.70
2018-06-11T04:12:14.171Z,18.70
2018-06-11T04:14:44.551Z,18.70
2018-06-11T04:17:14.927Z,18.60
2018-06-11T04:19:45.325Z,18.60
2018-06-11T04:22:16.401Z,18.60
2018-06-11T04:24:46.778Z,18.60
2018-06-11T04:27:17.179Z,18.60
2018-06-11T04:29:50.619Z,18.60
2018-06-11T04:32:21.768Z,18.60
2018-06-11T04:34:52.174Z,18.60
2018-06-11T04:37:22.545Z,18.60
2018-06-11T04:39:52.921Z,18.60
2018-06-11T04:42:23.315Z,18.60
2018-06-11T04:44:53.690Z,18.60
2018-06-11T04:47:24.835Z,18.70
2018-06-11T04:49:55.229Z,18.70
2018-06-11T04:52:25.605Z,18.70
2018-06-11T04:54:55.927Z,18.60
2018-06-11T04:57:27.090Z,18.60
2018-06-11T04:59:57.464Z,18.60
2018-06-11T05:02:27.853Z,18.50
2018-06-11T05:04:58.248Z,18.40
2018-06-11T05:07:29.396Z,18.30
2018-06-11T05:10:01.570Z,18.40
2018-06-11T05:12:31.946Z,18.30
2018-06-11T05:15:02.324Z,18.30
2018-06-11T05:17:32.694Z,18.30
2018-06-11T05:20:03.109Z,18.30
2018-06-11T05:22:36.548Z,18.30
2018-06-11T05:25:07.108Z,18.40
2018-06-11T05:27:38.142Z,18.20
2018-06-11T05:30:09.279Z,18.20
2018-06-11T05:32:40.412Z,18.20
2018-06-11T05:35:11.591Z,18.30
2018-06-11T05:37:41.967Z,18.20
2018-06-11T05:40:13.087Z,18.20
2018-06-11T05:42:45.526Z,18.30
2018-06-11T05:45:15.897Z,18.40
2018-06-11T05:47:46.277Z,18.30
2018-06-11T05:50:16.666Z,18.40
2018-06-11T05:52:48.075Z,18.30
2018-06-11T05:55:18.455Z,18.30
2018-06-11T05:57:48.852Z,18.20
2018-06-11T06:00:20.252Z,18.20
2018-06-11T06:02:51.328Z,18.30
2018-06-11T06:05:24.977Z,18.30
2018-06-11T06:07:55.535Z,18.20
2018-06-11T06:10:26.097Z,18.30
2018-06-11T06:12:56.496Z,18.30
2018-06-11T06:15:30.018Z,18.30
2018-06-11T06:18:01.627Z,18.60
2018-06-11T06:20:31.998Z,18.50
2018-06-11T06:23:05.438Z,18.60
2018-06-11T06:25:35.823Z,18.50
2018-06-11T06:28:10.291Z,18.40
2018-06-11T06:30:40.665Z,18.50
2018-06-11T06:33:11.058Z,18.50
2018-06-11T06:35:42.190Z,18.50
2018-06-11T06:38:12.565Z,18.50
2018-06-11T06:40:44.997Z,18.60
2018-06-11T06:43:16.127Z,18.60
2018-06-11T06:45:46.501Z,18.60
2018-06-11T06:48:18.949Z,18.60
2018-06-11T06:50:49.328Z,18.70
2018-06-11T06:53:41.190Z,18.80
2018-06-11T06:56:13.571Z,18.90
2018-06-11T06:58:44.712Z,19.00
2018-06-11T07:01:15.123Z,19.00
2018-06-11T07:03:45.502Z,18.80
2018-06-11T07:06:15.815Z,18.70
2018-06-11T07:08:46.850Z,18.80
2018-06-11T07:11:17.412Z,18.80
2018-06-11T07:13:47.782Z,18.90
2018-06-11T07:16:18.166Z,18.80
2018-06-11T07:18:51.295Z,18.90
2018-06-11T07:21:21.610Z,18.90
2018-06-11T07:23:52.048Z,19.00
2018-06-11T07:26:22.364Z,19.00
2018-06-11T07:28:52.746Z,19.10
2018-06-11T07:31:23.255Z,19.20
2018-06-11T07:33:53.526Z,19.20
2018-06-11T07:36:24.903Z,19.40
2018-06-11T07:38:55.243Z,19.70
2018-06-11T07:41:26.388Z,19.70
2018-06-11T07:43:57.519Z,19.70
2018-06-11T07:46:28.099Z,19.70
2018-06-11T07:48:58.475Z,19.80
2018-06-11T07:51:28.849Z,19.80
2018-06-11T07:54:00.279Z,19.90
2018-06-11T07:56:30.652Z,19.90
2018-06-11T07:59:01.031Z,19.80
2018-06-11T08:01:31.434Z,19.90
2018-06-11T08:04:01.803Z,19.80
2018-06-11T08:06:32.171Z,19.70
2018-06-11T08:09:02.569Z,19.80
2018-06-11T08:11:38.827Z,19.60
2018-06-11T08:14:09.213Z,19.60
2018-06-11T08:16:40.539Z,19.60
2018-06-11T08:19:10.911Z,19.60
2018-06-11T08:21:41.312Z,19.80
2018-06-11T08:26:59.670Z,19.90
2018-06-11T08:29:30.030Z,20.00
2018-06-11T08:32:00.404Z,20.00
2018-06-11T08:34:30.805Z,20.20
2018-06-11T08:37:03.230Z,20.30
2018-06-11T08:39:33.592Z,20.10
2018-06-11T08:42:04.174Z,20.10
2018-06-11T08:44:34.488Z,20.10
2018-06-11T08:47:04.862Z,20.20
2018-06-11T08:49:35.263Z,20.10
2018-06-11T08:52:06.407Z,20.10
2018-06-11T08:54:36.823Z,20.10
2018-06-11T08:57:10.177Z,20.10
2018-06-11T08:59:42.601Z,20.20
2018-06-11T09:02:13.765Z,20.10
2018-06-11T09:04:44.197Z,20.10
2018-06-11T09:07:15.529Z,20.00
2018-06-11T09:09:46.665Z,20.00
2018-06-11T09:12:17.059Z,20.00
2018-06-11T09:14:48.459Z,20.10
2018-06-11T09:17:19.599Z,20.00
2018-06-11T09:19:50.771Z,19.90
2018-06-11T09:22:21.145Z,19.90
2018-06-11T09:24:51.507Z,20.00
2018-06-11T09:27:21.903Z,20.00
2018-06-11T09:29:52.274Z,20.10
2018-06-11T09:32:22.653Z,20.10
2018-06-11T09:34:53.052Z,20.20
2018-06-11T09:37:27.517Z,20.20
2018-06-11T09:39:58.675Z,20.10
2018-06-11T09:42:29.054Z,20.10
2018-06-11T09:44:59.427Z,20.10
2018-06-11T09:47:30.597Z,20.10
2018-06-11T09:50:00.912Z,20.10
2018-06-11T09:52:31.224Z,20.30
2018-06-11T09:55:01.628Z,20.20
2018-06-11T09:57:32.002Z,20.30
2018-06-11T10:00:02.382Z,20.10
2018-06-11T10:02:33.553Z,20.10
2018-06-11T10:05:03.928Z,20.10
2018-06-11T10:07:34.299Z,20.00
2018-06-11T10:10:04.700Z,20.00
2018-06-11T10:12:35.097Z,19.90
2018-06-11T10:15:05.394Z,19.80
2018-06-11T10:17:35.786Z,19.70
2018-06-11T10:20:07.949Z,19.80
2018-06-11T10:22:38.516Z,19.80
2018-06-11T10:25:08.908Z,19.80
2018-06-11T10:27:40.051Z,19.90
2018-06-11T10:30:10.370Z,19.80
2018-06-11T10:32:40.769Z,19.80
2018-06-11T10:35:33.445Z,20.00
2018-06-11T10:38:03.842Z,20.20
2018-06-11T10:40:35.239Z,20.30
2018-06-11T10:43:06.378Z,20.40
2018-06-11T10:45:38.221Z,20.30
2018-06-11T10:48:08.593Z,20.30
2018-06-11T10:50:38.967Z,20.30
2018-06-11T10:53:09.369Z,20.30
2018-06-11T10:55:46.904Z,20.30
2018-06-11T10:58:17.309Z,20.30
2018-06-11T11:00:47.683Z,20.30
2018-06-11T11:03:18.059Z,20.20
2018-06-11T11:05:48.460Z,20.20
2018-06-11T11:08:20.882Z,20.20
2018-06-11T11:10:51.193Z,20.30
2018-06-11T11:13:21.595Z,20.20
2018-06-11T11:15:56.768Z,20.10
2018-06-11T11:18:27.146Z,20.10
2018-06-11T11:20:57.549Z,20.10
2018-06-11T11:23:28.686Z,20.00
2018-06-11T11:25:59.827Z,20.00
2018-06-11T11:28:30.993Z,20.00
2018-06-11T11:31:01.368Z,20.00
2018-06-11T11:33:31.734Z,19.90
2018-06-11T11:36:02.898Z,19.90
2018-06-11T11:38:33.208Z,19.90
2018-06-11T11:41:03.583Z,19.70
2018-06-11T11:43:33.974Z,19.80
2018-06-11T11:46:04.534Z,19.50
2018-06-11T11:48:35.932Z,19.50
2018-06-11T11:51:07.091Z,19.50
2018-06-11T11:53:37.465Z,19.50
2018-06-11T11:56:07.845Z,19.60
2018-06-11T11:58:38.246Z,19.40
2018-06-11T12:01:08.618Z,19.40
2018-06-11T12:03:45.157Z,19.50
2018-06-11T12:06:15.468Z,19.40
2018-06-11T12:08:46.610Z,19.50
2018-06-11T12:11:17.768Z,19.50
2018-06-11T12:13:48.950Z,19.40
2018-06-11T12:16:20.022Z,19.50
2018-06-11T12:18:50.421Z,19.50
2018-06-11T12:21:28.108Z,19.50
2018-06-11T12:23:58.498Z,19.60
2018-06-11T12:26:29.639Z,19.70
2018-06-11T12:29:00.199Z,19.70
2018-06-11T12:31:30.541Z,19.70
2018-06-11T12:34:04.942Z,19.70
2018-06-11T12:36:35.317Z,19.70
2018-06-11T12:39:05.709Z,19.70
2018-06-11T12:44:28.923Z,19.40
2018-06-11T12:46:59.291Z,19.40
2018-06-11T12:49:29.656Z,19.70
2018-06-11T12:52:20.449Z,19.70
2018-06-11T12:54:52.806Z,19.70
2018-06-11T12:57:23.178Z,19.90
2018-06-11T12:59:53.583Z,19.80
2018-06-11T13:02:23.954Z,19.90
2018-06-11T13:04:55.093Z,20.20
2018-06-11T13:07:25.440Z,20.20
2018-06-11T13:09:56.572Z,20.60
2018-06-11T13:12:27.710Z,20.90
2018-06-11T13:14:58.881Z,20.90
2018-06-11T13:17:29.248Z,20.90
2018-06-11T13:19:59.621Z,20.90
2018-06-11T13:22:30.019Z,21.10
2018-06-11T13:25:00.681Z,21.10
2018-06-11T13:27:31.846Z,20.60
2018-06-11T13:30:04.968Z,20.50
2018-06-11T13:32:35.333Z,20.60
2018-06-11T13:35:06.465Z,20.60
2018-06-11T13:37:36.850Z,20.50
2018-06-11T13:40:07.161Z,20.40
2018-06-11T13:42:37.545Z,20.40
2018-06-11T13:45:07.939Z,20.40
2018-06-11T13:47:42.573Z,20.50
2018-06-11T13:50:14.011Z,20.40
2018-06-11T13:52:45.388Z,20.30
2018-06-11T13:55:15.762Z,20.30
2018-06-11T13:57:46.156Z,20.20
2018-06-11T14:00:17.293Z,20.10
2018-06-11T14:02:47.662Z,20.10
2018-06-11T14:05:18.069Z,20.10
2018-06-11T14:07:49.207Z,20.20
2018-06-11T14:10:20.332Z,20.20
2018-06-11T14:12:50.731Z,20.20
2018-06-11T14:15:22.308Z,20.10
2018-06-11T14:17:52.677Z,20.10
2018-06-11T14:20:23.097Z,19.90
2018-06-11T14:22:53.464Z,20.00
2018-06-11T14:25:28.909Z,20.00
2018-06-11T14:28:03.362Z,20.10
2018-06-11T14:30:33.733Z,20.00
2018-06-11T14:33:04.122Z,20.10
2018-06-11T14:35:35.263Z,20.10
2018-06-11T14:38:06.396Z,20.10
2018-06-11T14:40:36.798Z,20.00
2018-06-11T14:43:11.579Z,20.10
2018-06-11T14:45:41.946Z,20.00
2018-06-11T14:48:15.138Z,20.10
2018-06-11T14:51:04.877Z,20.10
2018-06-11T14:53:36.042Z,20.00
2018-06-11T14:56:06.421Z,20.00
2018-06-11T14:58:36.978Z,20.10
2018-06-11T15:01:07.382Z,20.00
2018-06-11T15:03:38.390Z,20.00
2018-06-11T15:06:10.794Z,19.90
2018-06-11T15:08:41.193Z,19.90
2018-06-11T15:11:13.610Z,19.90
2018-06-11T15:13:44.749Z,19.90
2018-06-11T15:16:15.876Z,19.90
2018-06-11T15:18:47.192Z,19.90
2018-06-11T15:21:21.621Z,20.00
2018-06-11T15:23:59.305Z,20.00
2018-06-11T15:26:30.728Z,19.90
2018-06-11T15:29:02.885Z,20.10
2018-06-11T15:31:33.254Z,20.00
2018-06-11T15:34:03.654Z,20.20
2018-06-11T15:36:36.634Z,20.20
2018-06-11T15:39:07.777Z,20.00
2018-06-11T15:41:38.874Z,20.10
2018-06-11T15:44:12.348Z,20.00
2018-06-11T15:46:48.806Z,20.10
2018-06-11T15:49:20.109Z,20.10
2018-06-11T15:51:50.485Z,20.10
2018-06-11T15:54:20.882Z,20.20
2018-06-11T15:56:52.054Z,20.40
2018-06-11T15:59:22.405Z,20.40
2018-06-11T16:02:12.373Z,20.30
2018-06-11T16:04:42.742Z,20.20
2018-06-11T16:07:13.123Z,20.10
2018-06-11T16:09:43.454Z,19.90
2018-06-11T16:12:15.863Z,19.90
2018-06-11T16:14:46.245Z,20.10
2018-06-11T16:17:16.630Z,20.00
2018-06-11T16:19:47.150Z,20.00
2018-06-11T16:22:17.530Z,20.10
2018-06-11T16:27:33.898Z,20.10
2018-06-11T16:30:04.308Z,20.10
2018-06-11T16:32:34.688Z,20.20
2018-06-11T16:35:05.065Z,20.10
2018-06-11T16:37:35.466Z,20.10
2018-06-11T16:40:08.901Z,20.10
2018-06-11T16:42:39.274Z,20.10
2018-06-11T16:45:15.070Z,20.10
2018-06-11T16:47:45.386Z,20.00
2018-06-11T16:50:15.763Z,20.00
2018-06-11T16:52:46.155Z,19.90
2018-06-11T16:55:19.011Z,20.00
2018-06-11T16:57:54.511Z,20.00
2018-06-11T17:00:31.169Z,20.00
2018-06-11T17:03:01.565Z,20.00
2018-06-11T17:05:31.931Z,20.10
2018-06-11T17:08:02.308Z,20.10
2018-06-11T17:10:32.708Z,20.00
2018-06-11T17:13:03.021Z,20.00
2018-06-11T17:15:34.153Z,19.90
2018-06-11T17:18:04.553Z,19.90
2018-06-11T17:20:34.926Z,20.00
2018-06-11T17:23:07.721Z,20.00
2018-06-11T17:25:40.786Z,20.00
2018-06-11T17:28:11.174Z,19.90
2018-06-11T17:30:44.071Z,19.70
2018-06-11T17:33:14.460Z,19.70
2018-06-11T17:35:49.952Z,19.70
2018-06-11T17:38:22.854Z,19.70
2018-06-11T17:40:56.989Z,19.60
2018-06-11T17:43:27.312Z,19.60
2018-06-11T17:46:00.483Z,19.50
2018-06-11T17:48:31.560Z,19.30
2018-06-11T17:51:02.984Z,19.30
2018-06-11T17:53:33.347Z,19.30
2018-06-11T17:56:03.734Z,19.40
2018-06-11T17:58:40.461Z,19.30
2018-06-11T18:01:13.901Z,19.30
2018-06-11T18:03:44.271Z,19.30
2018-06-11T18:06:20.795Z,19.20
2018-06-11T18:08:51.151Z,19.10
2018-06-11T18:11:21.509Z,19.20
2018-06-11T18:13:52.918Z,19.20
2018-06-11T18:16:23.291Z,19.20
2018-06-11T18:18:56.258Z,19.20
2018-06-11T18:21:34.709Z,19.30
2018-06-11T18:24:05.076Z,19.40
2018-06-11T18:26:35.451Z,19.40
2018-06-11T18:29:05.852Z,19.40
2018-06-11T18:31:43.532Z,19.40
2018-06-11T18:34:13.925Z,19.30
2018-06-11T18:36:44.289Z,19.40
2018-06-11T18:39:14.657Z,19.40
2018-06-11T18:41:45.053Z,19.40
2018-06-11T18:44:22.579Z,19.30
2018-06-11T18:46:52.983Z,19.20
2018-06-11T18:49:45.479Z,19.00
2018-06-11T18:52:19.077Z,19.10
2018-06-11T18:54:50.917Z,19.30
2018-06-11T18:57:21.289Z,19.30
2018-06-11T19:02:43.880Z,19.30
2018-06-11T19:05:16.303Z,19.30
2018-06-11T19:07:47.445Z,19.10
2018-06-11T19:10:17.802Z,19.10
2018-06-11T19:12:48.192Z,19.10
2018-06-11T19:15:18.562Z,19.20
2018-06-11T19:17:48.936Z,19.10
2018-06-11T19:20:19.344Z,19.10
2018-06-11T19:22:52.684Z,19.10
2018-06-11T19:25:23.050Z,19.20
2018-06-11T19:27:53.442Z,19.20
2018-06-11T19:30:24.553Z,19.20
2018-06-11T19:32:54.916Z,19.10
2018-06-11T19:35:28.193Z,19.30
2018-06-11T19:37:58.483Z,19.20
2018-06-11T19:40:28.859Z,19.10
2018-06-11T19:42:59.247Z,19.00
2018-06-11T19:45:30.635Z,19.00
2018-06-11T19:48:01.000Z,19.10
2018-06-11T19:50:51.876Z,19.00
2018-06-11T19:53:24.217Z,19.10
2018-06-11T19:55:57.932Z,18.90
2018-06-11T19:58:29.056Z,18.90
2018-06-11T20:00:59.365Z,18.90
2018-06-11T20:03:29.745Z,18.90
2018-06-11T20:06:00.115Z,19.00
2018-06-11T20:08:36.300Z,18.90
2018-06-11T20:11:11.625Z,19.00
2018-06-11T20:13:44.631Z,18.80
2018-06-11T20:16:15.756Z,18.70
2018-06-11T20:18:46.117Z,18.70
2018-06-11T20:21:17.285Z,18.80
2018-06-11T20:23:47.642Z,18.80
2018-06-11T20:26:18.012Z,18.80
2018-06-11T20:28:49.158Z,18.90
2018-06-11T20:31:20.297Z,18.70
2018-06-11T20:33:51.441Z,18.70
2018-06-11T20:36:22.599Z,18.80
2018-06-11T20:38:52.977Z,18.70
2018-06-11T20:41:25.788Z,18.70
2018-06-11T20:43:56.947Z,18.80
2018-06-11T20:46:27.317Z,18.80
2018-06-11T20:48:58.704Z,18.80
2018-06-11T20:51:30.120Z,18.70
2018-06-11T20:54:00.491Z,18.70
2018-06-11T20:56:30.853Z,18.70
2018-06-11T20:59:05.330Z,18.50
2018-06-11T21:01:35.695Z,18.60
2018-06-11T21:04:06.073Z,18.60
2018-06-11T21:06:36.450Z,18.60
2018-06-11T21:09:07.842Z,18.60
2018-06-11T21:11:41.354Z,18.60
2018-06-11T21:14:11.720Z,18.50
2018-06-11T21:16:42.281Z,18.60
2018-06-11T21:19:12.609Z,18.60
2018-06-11T21:22:02.334Z,18.60
2018-06-11T21:24:33.487Z,18.50
2018-06-11T21:27:04.620Z,18.50
2018-06-11T21:29:34.981Z,18.40
2018-06-11T21:32:07.421Z,18.40
2018-06-11T21:34:37.795Z,18.50
2018-06-11T21:37:27.567Z,18.50
2018-06-11T21:39:57.923Z,18.60
2018-06-11T21:42:28.293Z,18.60
2018-06-11T21:44:58.687Z,18.60
2018-06-11T21:47:29.061Z,18.60
2018-06-11T21:49:59.429Z,18.50
2018-06-11T21:52:29.825Z,18.60
2018-06-11T21:55:04.330Z,18.70
2018-06-11T21:57:34.699Z,18.60
2018-06-11T22:00:05.038Z,18.50
2018-06-11T22:02:35.408Z,18.50
2018-06-11T22:05:05.779Z,18.50
2018-06-11T22:07:36.169Z,18.50
2018-06-11T22:10:06.559Z,18.40
2018-06-11T22:12:37.697Z,18.50
2018-06-11T22:15:08.858Z,18.50
2018-06-11T22:17:39.421Z,18.50
2018-06-11T22:20:12.887Z,18.40
2018-06-11T22:22:43.276Z,18.40
2018-06-11T22:25:13.646Z,18.40
2018-06-11T22:27:44.013Z,18.40
2018-06-11T22:30:19.555Z,18.50
2018-06-11T22:32:49.837Z,18.50
2018-06-11T22:35:20.971Z,18.50
2018-06-11T22:37:52.139Z,18.50
2018-06-11T22:40:22.504Z,18.50
2018-06-11T22:42:52.879Z,18.50
2018-06-11T22:45:23.972Z,18.60
2018-06-11T22:47:55.363Z,18.60
2018-06-11T22:50:26.499Z,18.50
2018-06-11T22:52:57.676Z,18.50
2018-06-11T22:55:28.043Z,18.60
2018-06-11T22:57:58.413Z,18.50
2018-06-11T23:03:17.552Z,18.50
2018-06-11T23:05:47.935Z,18.50
2018-06-11T23:08:18.311Z,18.60
2018-06-11T23:10:48.686Z,18.70
2018-06-11T23:13:19.061Z,18.50
2018-06-11T23:15:49.434Z,18.40
2018-06-11T23:18:19.801Z,18.40
2018-06-11T23:21:10.577Z,18.30
2018-06-11T23:23:41.972Z,18.30
2018-06-11T23:26:12.345Z,18.30
2018-06-11T23:28:42.747Z,18.30
2018-06-11T23:31:13.874Z,18.20
2018-06-11T23:33:44.186Z,18.20
2018-06-11T23:36:14.573Z,18.20
2018-06-11T23:38:45.033Z,18.40
2018-06-11T23:41:15.280Z,18.40
2018-06-11T23:43:45.671Z,18.40
2018-06-11T23:46:22.190Z,18.30
2018-06-11T23:48:52.592Z,18.30
2018-06-11T23:51:22.967Z,18.30
2018-06-11T23:53:53.350Z,18.30
2018-06-11T23:56:24.392Z,18.40
2018-06-11T23:58:54.949Z,18.40
